Airfield :
LOGIN :

Register | Disclaimer

   EN    FR    IT 

 










Legend :    VFR   Marginal VFR   IFR   Intensive IFR   Very Intensive IFR
Visi :
Ceiling :
>= 8 km
>= 3000ft
5 to 8 km
1000 to 3000 ft
1500m to 5 km
500 to 1000 ft
800 to 1500m
200 to 500 ft
< 800m
< 200 ft
Symbols :   Thunderstorms  Fog  Heavy snow  Heavy precipitations  Wind > 20 kt
SIGMETs :     Misc.  Thunderstorms  Icing  Turbulence  Mountain Waves  Volcanic Ashes






- Airport Elevation : 256 ft
- IATA code : CFR


LFRK - Caen

CURRENT METAR :
  • 271800Z AUTO 29009KT 9999 BKN036 BKN140 05/01 Q1013 NOSIG

EXPIRED METARs :
  • 271730Z AUTO 30014KT 9999 FEW036 06/01 Q1012 NOSIG
  • 271700Z AUTO 30016KT 9999 SCT039 07/01 Q1011 NOSIG
  • 271630Z AUTO 30020KT 9999 BKN035 07/01 Q1011 BECMG 25007KT
  • 271600Z AUTO 31018KT 9999 BKN030 08/02 Q1010 NOSIG
  • 271530Z AUTO 31020KT 9999 BKN031 07/02 Q1009 BECMG 30010KT

TAF TAF LFRK
Valid from the 27 at 15:00 until the 28 at 00:00 UTC


271400Z 2715/2724 32020G30KT 9999 SCT025
BECMG 2716/2718 30010KT
BECMG 2718/2720 25007KT
Met : +33 2 31 26 68 11



MET'MAP, your aeronautical weather chart ! - Copyright ORBIFLY December 2007 - Disclaimer

ORBIFLY MET'MAP TEAM :

Programming & Development : Alexandra Zaïnal
Concept & original design : Baudouin d'Aumeries
Assistance for programming : Marc-Olivier Méhu
Technical & hardware support : Manuel Goepfert

Contact : metmap@orbifly.com




SOURCES & CREDITS :

   NOAA